Time;durP1;ratioP1;P1;durP2;ratioP2;P2;SDS_P1;SDS_P2;PMS_P1;PMS_P2;Temp;Humidity;BMP_temperature;BMP_pressure;BME280_temperature;BME280_humidity;BME280_pressure;Samples;Min_cycle;Max_cycle;Signal;HPM_P1;HPM_P2
2022/08/07 00:00:54;;;;;;;5.28;3.30;;;15.80;95.70;;;;;;5008346;28;20033;-40
2022/08/07 00:03:19;;;;;;;4.53;3.13;;;15.80;95.90;;;;;;5007853;28;20381;-39
2022/08/07 00:05:45;;;;;;;5.60;3.33;;;15.70;96.10;;;;;;5005849;28;20149;-42
2022/08/07 00:08:11;;;;;;;4.22;3.13;;;15.70;96.30;;;;;;5008997;28;20042;-39
2022/08/07 00:10:37;;;;;;;4.38;2.83;;;15.60;96.60;;;;;;5008356;28;20042;-39
2022/08/07 00:13:04;;;;;;;6.75;3.33;;;15.60;96.70;;;;;;5007093;28;20133;-41
2022/08/07 00:15:31;;;;;;;4.85;3.28;;;15.60;96.90;;;;;;5006843;28;20497;-39
2022/08/07 00:17:57;;;;;;;5.05;2.80;;;15.60;97.10;;;;;;5007448;28;20047;-41
2022/08/07 00:20:23;;;;;;;5.38;2.95;;;15.60;97.10;;;;;;5009196;28;20176;-42
2022/08/07 00:22:49;;;;;;;4.50;3.00;;;15.50;97.20;;;;;;5011058;28;20522;-41
2022/08/07 00:25:14;;;;;;;5.10;2.38;;;15.50;97.20;;;;;;5004794;28;20053;-44
2022/08/07 00:27:40;;;;;;;4.53;2.63;;;15.50;97.30;;;;;;5009158;28;20034;-39
2022/08/07 00:30:06;;;;;;;4.22;2.70;;;15.50;97.20;;;;;;5008671;28;20042;-42
2022/08/07 00:32:32;;;;;;;4.82;2.58;;;15.50;97.30;;;;;;5008087;28;20103;-43
2022/08/07 00:34:57;;;;;;;4.40;2.60;;;15.50;97.60;;;;;;5006216;28;20472;-41
2022/08/07 00:37:25;;;;;;;4.47;2.42;;;15.40;97.70;;;;;;5002185;28;20498;-41
2022/08/07 00:39:53;;;;;;;4.32;2.78;;;15.40;97.90;;;;;;5007150;28;20041;-43
2022/08/07 00:42:20;;;;;;;4.78;2.45;;;15.40;98.20;;;;;;5008787;28;20042;-41
2022/08/07 00:44:45;;;;;;;6.88;2.72;;;15.40;98.30;;;;;;5006079;28;20053;-41
2022/08/07 00:47:11;;;;;;;4.30;2.17;;;15.30;98.30;;;;;;5010312;28;20041;-41
2022/08/07 00:49:37;;;;;;;4.43;2.72;;;15.30;98.30;;;;;;5008791;28;20045;-41
2022/08/07 00:52:07;;;;;;;5.03;2.50;;;15.30;98.30;;;;;;5007145;28;20044;-41
2022/08/07 00:54:32;;;;;;;4.10;2.25;;;15.30;98.50;;;;;;5007362;28;20400;-37
2022/08/07 00:56:58;;;;;;;5.85;2.88;;;15.20;98.30;;;;;;5008158;28;20038;-40
2022/08/07 00:59:24;;;;;;;5.10;2.33;;;15.20;98.50;;;;;;5007512;28;20056;-41
2022/08/07 01:01:50;;;;;;;3.92;2.50;;;15.10;98.70;;;;;;5007551;28;20593;-40
2022/08/07 01:04:17;;;;;;;4.50;2.55;;;15.10;98.80;;;;;;5007868;28;20125;-39
2022/08/07 01:06:44;;;;;;;4.18;2.40;;;15.00;99.40;;;;;;5005867;28;20129;-37
2022/08/07 01:09:10;;;;;;;4.13;2.47;;;15.00;99.10;;;;;;5007509;28;20052;-39
2022/08/07 01:11:36;;;;;;;4.68;2.40;;;15.00;99.00;;;;;;5008282;28;20038;-41
2022/08/07 01:14:02;;;;;;;3.65;2.28;;;15.00;99.40;;;;;;4987738;28;20137;-40
2022/08/07 01:16:28;;;;;;;3.80;2.40;;;15.00;99.20;;;;;;4989816;28;20081;-41
2022/08/07 01:18:54;;;;;;;3.83;2.40;;;15.00;99.40;;;;;;5008743;28;20065;-39
2022/08/07 01:21:23;;;;;;;3.50;2.15;;;14.90;99.40;;;;;;5007766;28;20214;-39
2022/08/07 01:23:50;;;;;;;3.90;1.90;;;14.90;99.50;;;;;;5006849;28;20120;-40
2022/08/07 01:26:19;;;;;;;3.70;1.60;;;14.80;99.70;;;;;;5005354;28;20052;-39
2022/08/07 01:28:50;;;;;;;2.90;1.42;;;14.80;99.80;;;;;;4986261;28;20402;-40
2022/08/07 01:31:18;;;;;;;3.58;1.80;;;14.80;99.90;;;;;;5008775;28;20037;-40
2022/08/07 01:33:47;;;;;;;2.92;1.30;;;14.80;99.90;;;;;;5007097;28;20034;-38
2022/08/07 01:36:13;;;;;;;2.15;1.13;;;14.80;99.90;;;;;;5005193;28;20491;-41
2022/08/07 01:38:39;;;;;;;1.70;0.85;;;14.70;99.90;;;;;;5007354;28;20040;-41
2022/08/07 01:41:06;;;;;;;3.25;1.20;;;14.70;99.90;;;;;;5005822;28;20584;-39
2022/08/07 01:43:32;;;;;;;4.20;1.20;;;14.70;99.90;;;;;;5002709;28;20068;-40
2022/08/07 01:45:58;;;;;;;2.20;1.40;;;14.60;99.90;;;;;;5005038;28;20114;-42
2022/08/07 01:48:25;;;;;;;2.90;2.00;;;14.60;99.90;;;;;;5007949;28;20061;-43
2022/08/07 01:51:12;;;;;;;3.45;1.80;;;14.50;99.90;;;;;;5007404;28;20082;-41
2022/08/07 01:53:42;;;;;;;4.35;2.00;;;14.60;99.90;;;;;;5005800;28;20038;-41
2022/08/07 01:56:15;;;;;;;4.32;1.48;;;14.50;99.90;;;;;;5004980;28;20112;-43
2022/08/07 01:58:49;;;;;;;2.67;1.50;;;14.40;99.90;;;;;;5006277;28;20069;-39
2022/08/07 02:01:22;;;;;;;2.75;1.60;;;14.50;99.90;;;;;;5007203;28;20129;-41
2022/08/07 02:03:55;;;;;;;3.28;1.95;;;14.50;99.90;;;;;;5006137;28;20566;-41
2022/08/07 02:06:23;;;;;;;4.20;1.95;;;14.50;99.90;;;;;;5003071;28;20116;-41
2022/08/07 02:08:50;;;;;;;3.10;1.70;;;14.40;99.90;;;;;;5005136;28;20038;-39
2022/08/07 02:11:16;;;;;;;4.70;2.10;;;14.50;99.90;;;;;;5006623;28;20072;-40
2022/08/07 02:13:43;;;;;;;2.80;1.70;;;14.40;99.90;;;;;;5008151;28;20391;-43
2022/08/07 02:16:10;;;;;;;2.92;1.80;;;14.40;99.90;;;;;;5007739;28;20045;-39
2022/08/07 02:18:38;;;;;;;3.28;1.98;;;14.40;99.90;;;;;;5007469;28;20049;-41
2022/08/07 02:21:06;;;;;;;4.28;2.47;;;14.40;99.90;;;;;;5008072;28;20030;-39
2022/08/07 02:23:36;;;;;;;3.35;2.00;;;14.40;99.90;;;;;;5008292;28;20069;-39
2022/08/07 02:26:04;;;;;;;4.03;2.13;;;14.30;99.90;;;;;;5011006;28;20123;-41
2022/08/07 02:28:31;;;;;;;4.38;2.28;;;14.40;99.90;;;;;;5007835;28;20378;-42
2022/08/07 02:31:00;;;;;;;4.13;2.45;;;14.30;99.90;;;;;;5009918;28;20038;-39
2022/08/07 02:33:28;;;;;;;4.60;2.22;;;14.30;99.90;;;;;;5009751;28;20045;-41
2022/08/07 02:35:54;;;;;;;4.25;2.15;;;14.30;99.90;;;;;;5011860;28;20053;-41
2022/08/07 02:38:25;;;;;;;3.63;1.80;;;14.30;99.90;;;;;;5006165;28;20081;-42
2022/08/07 02:40:52;;;;;;;3.38;2.20;;;14.30;99.90;;;;;;5007440;28;20454;-39
2022/08/07 02:43:18;;;;;;;3.42;1.90;;;14.20;99.90;;;;;;5009495;28;20117;-40
2022/08/07 02:45:46;;;;;;;4.15;1.80;;;14.20;99.90;;;;;;5009817;28;20038;-41
2022/08/07 02:48:12;;;;;;;5.05;2.33;;;14.20;99.90;;;;;;5009356;28;20458;-39
2022/08/07 02:50:41;;;;;;;3.28;2.17;;;14.20;99.90;;;;;;5011297;28;20149;-41
2022/08/07 02:53:11;;;;;;;4.88;2.33;;;14.10;99.90;;;;;;5007616;28;20113;-42
2022/08/07 02:55:42;;;;;;;3.47;1.83;;;14.10;99.90;;;;;;5009133;28;20037;-41
2022/08/07 02:58:12;;;;;;;3.15;1.75;;;14.10;99.90;;;;;;5009398;28;20136;-40
2022/08/07 03:00:39;;;;;;;2.97;1.45;;;14.10;99.90;;;;;;5012052;28;20042;-40
2022/08/07 03:03:07;;;;;;;3.85;1.60;;;14.00;99.90;;;;;;5008855;28;20049;-39
2022/08/07 03:05:35;;;;;;;2.60;1.38;;;14.00;99.90;;;;;;5002347;28;20046;-42
2022/08/07 03:08:03;;;;;;;3.20;1.45;;;13.90;99.90;;;;;;5011289;28;20434;-40
2022/08/07 03:10:29;;;;;;;2.58;1.73;;;13.90;99.90;;;;;;5008832;28;20045;-41
2022/08/07 03:12:55;;;;;;;2.97;1.55;;;13.90;99.90;;;;;;5009064;28;20510;-39
2022/08/07 03:15:22;;;;;;;5.05;1.98;;;13.80;99.90;;;;;;5008594;28;20557;-41
2022/08/07 03:17:48;;;;;;;3.03;1.90;;;13.80;99.90;;;;;;5009805;28;20038;-41
2022/08/07 03:20:14;;;;;;;3.10;1.80;;;13.80;99.90;;;;;;5008886;28;20084;-39
2022/08/07 03:22:41;;;;;;;2.67;1.52;;;13.80;99.90;;;;;;5008131;28;20100;-41
2022/08/07 03:25:08;;;;;;;3.10;1.90;;;13.80;99.90;;;;;;5009479;28;20038;-38
2022/08/07 03:27:34;;;;;;;2.83;1.63;;;13.80;99.90;;;;;;5006323;28;20095;-42
2022/08/07 03:30:00;;;;;;;3.30;2.05;;;13.70;99.90;;;;;;5011423;28;20191;-42
2022/08/07 03:32:32;;;;;;;4.25;2.53;;;13.70;99.90;;;;;;5009207;28;20053;-39
2022/08/07 03:35:01;;;;;;;3.47;2.05;;;13.70;99.90;;;;;;4991714;28;20565;-38
2022/08/07 03:37:30;;;;;;;4.30;2.13;;;13.70;99.90;;;;;;5007714;28;20703;-39
2022/08/07 03:39:57;;;;;;;3.53;1.70;;;13.70;99.90;;;;;;5006545;28;20066;-39
2022/08/07 03:42:24;;;;;;;2.72;1.52;;;13.60;99.90;;;;;;5004499;28;20080;-42
2022/08/07 03:44:50;;;;;;;2.20;1.30;;;13.60;99.90;;;;;;4989594;28;20035;-42
2022/08/07 03:47:17;;;;;;;2.88;1.50;;;13.60;99.90;;;;;;5001749;28;20068;-39
2022/08/07 03:49:43;;;;;;;3.45;1.20;;;13.60;99.90;;;;;;5008807;28;20037;-43
2022/08/07 03:52:11;;;;;;;2.97;1.50;;;13.60;99.90;;;;;;5009565;28;20370;-40
2022/08/07 03:54:37;;;;;;;4.72;1.55;;;13.50;99.90;;;;;;5008112;28;20592;-37
2022/08/07 03:57:05;;;;;;;2.88;1.45;;;13.50;99.90;;;;;;5007180;28;20124;-36
2022/08/07 03:59:31;;;;;;;2.83;1.85;;;13.50;99.90;;;;;;5005894;28;20046;-39
2022/08/07 04:01:58;;;;;;;3.85;1.67;;;13.50;99.90;;;;;;5007293;28;20042;-39
2022/08/07 04:04:24;;;;;;;2.78;1.58;;;13.50;99.90;;;;;;5008226;28;20503;-42
2022/08/07 04:06:51;;;;;;;3.10;1.80;;;13.50;99.90;;;;;;5008481;28;20550;-41
2022/08/07 04:09:18;;;;;;;3.50;2.10;;;13.50;99.90;;;;;;5009486;28;20042;-42
2022/08/07 04:11:45;;;;;;;4.55;1.60;;;13.50;99.90;;;;;;5008266;28;20483;-38
2022/08/07 04:14:11;;;;;;;5.20;1.92;;;13.50;99.90;;;;;;5008109;28;21375;-40
2022/08/07 04:16:37;;;;;;;3.13;1.70;;;13.50;99.90;;;;;;5008686;28;20362;-37
2022/08/07 04:19:04;;;;;;;3.75;2.22;;;13.50;99.90;;;;;;5007157;28;20564;-37
2022/08/07 04:21:30;;;;;;;3.88;2.10;;;13.50;99.90;;;;;;5010704;28;20124;-40
2022/08/07 04:23:56;;;;;;;3.45;1.80;;;13.40;99.90;;;;;;5007632;28;20049;-38
2022/08/07 04:26:22;;;;;;;2.95;1.73;;;13.40;99.90;;;;;;5007650;28;20068;-40
2022/08/07 04:28:48;;;;;;;3.50;1.25;;;13.40;99.90;;;;;;5008468;28;20042;-42
2022/08/07 04:31:15;;;;;;;1.67;0.93;;;13.40;99.90;;;;;;5008199;28;20136;-41
2022/08/07 04:33:41;;;;;;;2.53;1.40;;;13.40;99.90;;;;;;5006220;28;20048;-40
2022/08/07 04:36:07;;;;;;;4.15;1.60;;;13.40;99.90;;;;;;5006228;28;20037;-39
2022/08/07 04:38:35;;;;;;;2.47;1.40;;;13.40;99.90;;;;;;5008576;28;20037;-38
2022/08/07 04:41:00;;;;;;;3.08;1.63;;;13.40;99.90;;;;;;5005271;28;20372;-36
2022/08/07 04:43:36;;;;;;;4.20;2.13;;;13.50;99.90;;;;;;5008496;28;20092;-41
2022/08/07 04:46:14;;;;;;;4.85;2.00;;;13.50;99.90;;;;;;5006860;28;20042;-41
2022/08/07 04:48:54;;;;;;;5.03;2.85;;;13.60;99.90;;;;;;5009245;28;20415;-42
2022/08/07 04:51:49;;;;;;;5.57;2.70;;;13.60;99.90;;;;;;5007249;28;20034;-42
2022/08/07 04:54:50;;;;;;;5.07;2.63;;;13.60;99.90;;;;;;4997574;28;20099;-40
2022/08/07 04:57:40;;;;;;;4.28;2.20;;;13.70;99.90;;;;;;5005390;28;20042;-40
2022/08/07 05:00:40;;;;;;;6.35;2.53;;;13.70;99.90;;;;;;5006578;28;20111;-40
2022/08/07 05:03:35;;;;;;;5.45;2.65;;;13.70;99.90;;;;;;4972772;28;20051;-38
2022/08/07 05:06:15;;;;;;;7.47;2.72;;;13.80;99.90;;;;;;5002258;28;20034;-39
2022/08/07 05:08:41;;;;;;;5.38;3.35;;;13.90;99.90;;;;;;5004850;28;20092;-37
2022/08/07 05:11:23;;;;;;;8.30;4.10;;;13.90;99.90;;;;;;5006402;28;20077;-38
2022/08/07 05:14:09;;;;;;;7.13;3.55;;;14.00;99.90;;;;;;5003617;28;20053;-38
2022/08/07 05:16:38;;;;;;;7.38;3.78;;;14.00;99.90;;;;;;5002141;28;20042;-41
2022/08/07 05:19:11;;;;;;;6.55;3.97;;;14.10;99.90;;;;;;4999443;28;20435;-38
2022/08/07 05:21:41;;;;;;;5.63;3.70;;;14.10;99.90;;;;;;5004386;28;20049;-35
2022/08/07 05:24:11;;;;;;;6.32;3.92;;;14.10;99.90;;;;;;5003835;28;20065;-35
2022/08/07 05:26:38;;;;;;;6.97;4.07;;;14.10;99.90;;;;;;5007059;28;20577;-35
2022/08/07 05:29:06;;;;;;;7.07;3.70;;;14.20;99.90;;;;;;4999654;28;20499;-35
2022/08/07 05:31:37;;;;;;;6.53;3.70;;;14.20;99.90;;;;;;5010050;28;20495;-35
2022/08/07 05:34:06;;;;;;;7.38;4.35;;;14.30;99.90;;;;;;5004845;28;20049;-35
2022/08/07 05:36:33;;;;;;;5.90;3.88;;;14.30;99.90;;;;;;5004035;28;20501;-35
2022/08/07 05:39:00;;;;;;;6.80;4.15;;;14.40;99.90;;;;;;5007571;28;20077;-36
2022/08/07 05:41:26;;;;;;;6.95;4.30;;;14.40;99.90;;;;;;5004665;28;20061;-35
2022/08/07 05:43:55;;;;;;;13.13;5.25;;;14.50;99.90;;;;;;5006919;28;20621;-35
2022/08/07 05:46:22;;;;;;;12.13;4.20;;;14.50;99.90;;;;;;5005860;28;20038;-35
2022/08/07 05:48:52;;;;;;;6.75;3.85;;;14.60;99.90;;;;;;5005369;28;20117;-35
2022/08/07 05:51:19;;;;;;;6.45;3.97;;;14.70;99.90;;;;;;5009589;28;20041;-35
2022/08/07 05:53:45;;;;;;;9.25;4.68;;;14.80;99.90;;;;;;5006370;28;20034;-36
2022/08/07 05:56:14;;;;;;;8.88;5.22;;;14.90;99.90;;;;;;5009456;28;20116;-36
2022/08/07 05:58:41;;;;;;;9.43;5.78;;;15.00;99.90;;;;;;5006601;28;20499;-35
2022/08/07 06:01:09;;;;;;;10.50;5.35;;;15.10;99.90;;;;;;5008802;28;20406;-32
2022/08/07 06:03:37;;;;;;;7.55;5.10;;;15.20;99.90;;;;;;5006990;28;20045;-32
2022/08/07 06:06:03;;;;;;;7.70;5.45;;;15.40;99.90;;;;;;5009306;28;20096;-41
2022/08/07 06:08:29;;;;;;;8.55;4.25;;;15.50;99.90;;;;;;5006854;28;20491;-42
2022/08/07 06:10:55;;;;;;;7.93;5.07;;;15.80;99.90;;;;;;5008995;28;20034;-41
2022/08/07 06:13:21;;;;;;;9.10;4.63;;;16.20;98.40;;;;;;5008491;28;20049;-42
2022/08/07 06:15:48;;;;;;;6.93;3.90;;;16.40;97.50;;;;;;5009235;28;20121;-40
2022/08/07 06:18:15;;;;;;;8.73;5.47;;;16.90;95.80;;;;;;5006810;28;20034;-41
2022/08/07 06:20:42;;;;;;;11.52;4.32;;;17.20;94.70;;;;;;4990348;28;20137;-41
2022/08/07 06:23:09;;;;;;;8.13;5.30;;;17.30;94.40;;;;;;5010033;28;20072;-42
2022/08/07 06:25:38;;;;;;;8.43;5.18;;;17.40;94.20;;;;;;5009820;28;20566;-42
2022/08/07 06:28:09;;;;;;;6.43;4.20;;;17.40;94.10;;;;;;4989545;28;20081;-39
2022/08/07 06:30:36;;;;;;;8.75;4.93;;;17.40;93.80;;;;;;5002224;28;20502;-44
2022/08/07 06:33:03;;;;;;;11.10;5.28;;;17.60;93.50;;;;;;5010562;28;20602;-42
2022/08/07 06:35:29;;;;;;;8.05;5.50;;;17.70;93.00;;;;;;5012144;28;20475;-41
2022/08/07 06:37:57;;;;;;;6.50;3.97;;;17.70;93.20;;;;;;5008935;28;20033;-34
2022/08/07 06:40:23;;;;;;;9.30;5.57;;;17.70;93.00;;;;;;5011516;28;20050;-38
2022/08/07 06:42:50;;;;;;;9.35;6.10;;;17.70;93.20;;;;;;5009275;28;20049;-35
2022/08/07 06:45:19;;;;;;;11.07;5.35;;;17.60;93.20;;;;;;5005603;28;20049;-35
2022/08/07 06:47:46;;;;;;;8.98;5.45;;;17.60;93.30;;;;;;4990677;28;20097;-35
2022/08/07 06:50:12;;;;;;;9.63;5.60;;;17.60;93.10;;;;;;4994021;28;20252;-37
2022/08/07 06:52:42;;;;;;;6.32;3.75;;;17.60;93.00;;;;;;5007509;28;20052;-34
2022/08/07 06:55:19;;;;;;;8.00;5.25;;;17.80;92.00;;;;;;4992125;28;20068;-34
2022/08/07 06:57:45;;;;;;;5.47;3.22;;;18.00;91.60;;;;;;5008888;28;20033;-40
2022/08/07 07:00:12;;;;;;;6.22;3.85;;;18.20;91.40;;;;;;5008965;28;20046;-38
2022/08/07 07:02:40;;;;;;;8.00;4.55;;;18.40;90.30;;;;;;5010577;28;20549;-38
2022/08/07 07:05:06;;;;;;;12.30;5.50;;;18.60;89.80;;;;;;4993754;28;20053;-38
2022/08/07 07:07:32;;;;;;;7.38;4.47;;;18.70;90.00;;;;;;5008465;28;20042;-39
2022/08/07 07:09:58;;;;;;;6.47;3.88;;;18.60;90.20;;;;;;5011228;28;20046;-39
2022/08/07 07:12:34;;;;;;;6.90;3.72;;;18.60;90.00;;;;;;5011234;28;20037;-38
2022/08/07 07:15:18;;;;;;;4.43;3.30;;;18.70;88.80;;;;;;5006840;28;20030;-40
2022/08/07 07:18:12;;;;;;;8.80;3.50;;;18.70;89.20;;;;;;5007742;28;20033;-41
2022/08/07 07:21:11;;;;;;;5.80;3.08;;;18.80;88.20;;;;;;4997402;28;20136;-39
2022/08/07 07:23:37;;;;;;;5.05;3.08;;;18.90;85.40;;;;;;4992149;28;20089;-41
2022/08/07 07:26:06;;;;;;;5.82;3.10;;;18.80;86.80;;;;;;5008114;28;20041;-37
2022/08/07 07:28:38;;;;;;;9.32;3.33;;;18.90;86.00;;;;;;4989985;28;20519;-39
2022/08/07 07:31:24;;;;;;;3.70;2.45;;;19.10;85.10;;;;;;5009740;28;20091;-39
2022/08/07 07:33:54;;;;;;;6.80;2.58;;;19.20;84.00;;;;;;5008465;28;20080;-41
2022/08/07 07:36:23;;;;;;;4.60;2.25;;;19.40;83.50;;;;;;5009208;28;20077;-41
2022/08/07 07:38:49;;;;;;;3.85;1.80;;;19.30;82.70;;;;;;5005602;28;20038;-39
2022/08/07 07:41:18;;;;;;;4.75;2.75;;;19.30;82.50;;;;;;5007140;28;20065;-38
2022/08/07 07:43:47;;;;;;;4.47;2.40;;;19.30;82.60;;;;;;5006540;28;20049;-41
2022/08/07 07:46:14;;;;;;;3.15;2.08;;;19.30;83.10;;;;;;5009631;28;20052;-40
2022/08/07 07:48:41;;;;;;;5.10;2.40;;;19.30;82.20;;;;;;4993409;28;20046;-40
2022/08/07 07:51:08;;;;;;;3.88;1.90;;;19.40;81.80;;;;;;5006994;28;20113;-39
2022/08/07 07:53:37;;;;;;;2.78;1.77;;;19.50;81.50;;;;;;4993278;28;20046;-38
2022/08/07 07:56:05;;;;;;;3.03;1.83;;;19.60;81.20;;;;;;5008176;28;20515;-38
2022/08/07 07:58:36;;;;;;;4.68;2.70;;;19.70;80.80;;;;;;5008727;28;20557;-42
2022/08/07 08:01:03;;;;;;;3.88;2.13;;;19.80;80.10;;;;;;5003623;28;20069;-38
2022/08/07 08:03:32;;;;;;;3.55;1.70;;;19.90;79.50;;;;;;5009708;28;20128;-40
2022/08/07 08:05:59;;;;;;;3.15;1.75;;;20.00;79.00;;;;;;5008553;28;20046;-41
2022/08/07 08:08:27;;;;;;;3.55;1.88;;;20.10;79.00;;;;;;5007960;28;20069;-38
2022/08/07 08:10:55;;;;;;;2.90;1.73;;;20.20;78.60;;;;;;5008176;28;20046;-39
2022/08/07 08:13:23;;;;;;;3.20;1.60;;;20.30;77.70;;;;;;5008526;28;20053;-40
2022/08/07 08:15:50;;;;;;;2.97;1.65;;;20.40;78.50;;;;;;5007764;28;20041;-41
2022/08/07 08:18:16;;;;;;;2.45;1.48;;;20.40;77.20;;;;;;5008281;28;20042;-41
2022/08/07 08:20:43;;;;;;;7.28;2.28;;;20.50;77.00;;;;;;5008932;28;20124;-41
2022/08/07 08:28:43;;;;;;;2.97;1.40;;;20.80;75.10;;;;;;5003782;28;20046;-41
2022/08/07 08:31:16;;;;;;;3.58;1.45;;;20.60;74.30;;;;;;5008767;28;20049;-42
2022/08/07 08:33:42;;;;;;;5.07;1.25;;;20.50;74.90;;;;;;5008046;28;20065;-40
2022/08/07 08:36:11;;;;;;;1.80;1.00;;;20.40;74.80;;;;;;5005162;28;20058;-41
2022/08/07 08:38:40;;;;;;;3.20;1.50;;;20.30;75.90;;;;;;5005431;28;20054;-39
2022/08/07 08:41:20;;;;;;;1.80;1.08;;;20.30;76.30;;;;;;4991851;28;20100;-40
2022/08/07 08:44:03;;;;;;;1.77;1.23;;;20.40;75.40;;;;;;5009866;28;20048;-40
2022/08/07 08:46:47;;;;;;;3.45;1.15;;;20.50;74.80;;;;;;5001638;28;20038;-40
2022/08/07 08:49:32;;;;;;;2.30;1.20;;;20.60;73.30;;;;;;5007967;28;20479;-40
2022/08/07 08:52:15;;;;;;;2.33;1.10;;;20.40;72.80;;;;;;5006727;28;20100;-41
2022/08/07 08:54:48;;;;;;;1.83;1.10;;;20.30;73.90;;;;;;5005223;28;20038;-41
2022/08/07 08:57:34;;;;;;;3.75;1.08;;;20.50;74.10;;;;;;5009437;28;20048;-39
2022/08/07 09:00:07;;;;;;;1.98;1.00;;;20.70;72.40;;;;;;5003132;28;20065;-37
2022/08/07 09:02:55;;;;;;;2.03;1.10;;;20.90;72.10;;;;;;5006616;28;20060;-38
2022/08/07 09:05:46;;;;;;;3.17;1.30;;;21.10;71.20;;;;;;5008975;28;20088;-38
2022/08/07 09:08:28;;;;;;;2.95;1.23;;;21.20;71.50;;;;;;5009457;28;20037;-40
2022/08/07 09:11:09;;;;;;;2.22;1.20;;;21.30;69.20;;;;;;5005456;28;20388;-37
2022/08/07 09:13:54;;;;;;;2.10;1.20;;;21.40;68.40;;;;;;5007789;28;20037;-41
2022/08/07 09:16:19;;;;;;;1.88;1.02;;;21.40;69.10;;;;;;5004003;28;20042;-38
2022/08/07 09:19:16;;;;;;;1.45;0.80;;;21.40;68.50;;;;;;5007710;28;20132;-38
2022/08/07 09:21:56;;;;;;;2.08;1.10;;;21.50;67.70;;;;;;5006301;28;20042;-40
2022/08/07 09:24:29;;;;;;;2.38;1.10;;;21.50;64.80;;;;;;5007388;28;20073;-39
2022/08/07 09:27:06;;;;;;;2.20;1.05;;;21.60;66.80;;;;;;5007644;28;20458;-39
2022/08/07 09:29:44;;;;;;;2.85;1.13;;;21.60;64.80;;;;;;5007613;28;20418;-41
2022/08/07 09:32:45;;;;;;;5.00;1.10;;;21.80;63.80;;;;;;5004911;28;20573;-38
2022/08/07 09:35:31;;;;;;;1.85;0.95;;;21.90;63.70;;;;;;5003965;28;20060;-38
2022/08/07 09:38:06;;;;;;;2.78;0.93;;;22.00;61.60;;;;;;5004922;28;20037;-40
2022/08/07 09:40:37;;;;;;;3.17;1.05;;;22.10;61.00;;;;;;5002301;28;20038;-38
2022/08/07 09:43:38;;;;;;;5.47;1.23;;;22.20;61.70;;;;;;5005373;28;20073;-41
2022/08/07 09:46:30;;;;;;;2.83;0.93;;;22.30;61.00;;;;;;5007879;28;20532;-36
2022/08/07 09:49:33;;;;;;;1.67;0.90;;;22.40;60.00;;;;;;5008096;28;20046;-38
2022/08/07 09:52:17;;;;;;;3.45;1.00;;;22.50;60.60;;;;;;5003377;28;20815;-36
2022/08/07 09:54:53;;;;;;;4.22;0.90;;;22.50;62.40;;;;;;4997239;28;20073;-38
2022/08/07 09:57:46;;;;;;;1.85;1.00;;;22.40;62.60;;;;;;5005217;28;20038;-38
2022/08/07 10:00:15;;;;;;;3.30;1.25;;;22.30;61.00;;;;;;5004882;28;20046;-38
2022/08/07 10:03:04;;;;;;;1.77;1.10;;;22.30;61.90;;;;;;5003142;28;20041;-37
2022/08/07 10:05:48;;;;;;;3.00;1.00;;;22.30;61.80;;;;;;5004639;28;20046;-37
2022/08/07 10:08:42;;;;;;;1.60;1.00;;;22.30;62.40;;;;;;5004391;28;20041;-38
2022/08/07 10:11:46;;;;;;;4.05;1.30;;;22.20;62.30;;;;;;5003620;28;20073;-37
2022/08/07 10:14:40;;;;;;;3.08;1.13;;;22.20;61.70;;;;;;4967870;28;20104;-37
2022/08/07 10:17:13;;;;;;;2.50;1.00;;;22.20;61.90;;;;;;5002988;28;20038;-37
2022/08/07 10:19:45;;;;;;;2.08;0.90;;;22.20;61.20;;;;;;5001910;28;20038;-37
2022/08/07 10:22:25;;;;;;;1.65;0.82;;;22.20;60.80;;;;;;4999846;28;20037;-37
2022/08/07 10:25:06;;;;;;;1.85;0.90;;;22.30;61.90;;;;;;5007222;28;20045;-37
2022/08/07 10:27:51;;;;;;;1.75;0.95;;;22.40;61.30;;;;;;5000885;28;20081;-42
2022/08/07 10:30:42;;;;;;;1.30;0.70;;;22.50;59.60;;;;;;5002968;28;20089;-38
2022/08/07 10:33:21;;;;;;;1.50;0.77;;;22.50;56.90;;;;;;5004776;28;20038;-41
2022/08/07 10:35:54;;;;;;;6.75;1.20;;;22.50;58.00;;;;;;5005227;28;20084;-42
2022/08/07 10:38:53;;;;;;;3.40;1.10;;;22.50;57.60;;;;;;5004625;28;20042;-39
2022/08/07 10:41:45;;;;;;;2.55;1.05;;;22.60;54.70;;;;;;4988530;28;20200;-33
2022/08/07 10:44:39;;;;;;;3.42;0.90;;;22.60;55.30;;;;;;5006765;28;20060;-33
2022/08/07 10:47:27;;;;;;;2.60;1.02;;;22.70;54.90;;;;;;5005167;28;20060;-34
2022/08/07 10:50:09;;;;;;;2.00;1.02;;;22.80;52.00;;;;;;5007006;28;20117;-33
2022/08/07 10:52:39;;;;;;;2.05;1.00;;;22.80;52.00;;;;;;5008447;28;20049;-33
2022/08/07 10:55:17;;;;;;;3.35;1.25;;;22.60;50.30;;;;;;4991937;28;20049;-35
2022/08/07 10:57:58;;;;;;;2.33;1.10;;;22.60;50.30;;;;;;5006173;28;20034;-33
2022/08/07 11:00:31;;;;;;;2.85;1.10;;;22.70;51.30;;;;;;5008029;28;20057;-33
2022/08/07 11:03:37;;;;;;;2.70;1.27;;;22.80;51.30;;;;;;5008551;28;20049;-33
2022/08/07 11:06:13;;;;;;;2.28;1.20;;;22.80;48.60;;;;;;4908698;29;20558;-33
2022/08/07 11:09:00;;;;;;;2.70;1.10;;;22.80;50.70;;;;;;4929631;29;20115;-33
2022/08/07 11:11:35;;;;;;;2.33;1.20;;;22.80;49.30;;;;;;4983525;28;20606;-34
2022/08/07 11:14:19;;;;;;;3.70;1.35;;;22.80;49.20;;;;;;5001735;28;20703;-36
2022/08/07 11:16:53;;;;;;;1.92;1.05;;;22.90;48.10;;;;;;5008605;28;20080;-33
2022/08/07 11:19:50;;;;;;;2.50;1.17;;;23.00;49.90;;;;;;5006081;28;20116;-34
2022/08/07 11:22:25;;;;;;;2.90;1.38;;;23.10;51.50;;;;;;5007269;28;20057;-34
2022/08/07 11:25:06;;;;;;;3.40;1.30;;;23.20;50.20;;;;;;5008219;28;20399;-34
2022/08/07 11:27:44;;;;;;;2.45;1.15;;;23.20;48.00;;;;;;5002882;28;20558;-34
2022/08/07 11:30:24;;;;;;;2.15;1.13;;;23.30;47.10;;;;;;5006557;28;20112;-34
2022/08/07 11:33:15;;;;;;;2.67;1.05;;;23.30;46.00;;;;;;5002333;28;20050;-34
2022/08/07 11:36:05;;;;;;;5.97;1.20;;;23.20;45.80;;;;;;5004305;28;20057;-36
2022/08/07 11:39:10;;;;;;;1.80;0.90;;;23.20;46.20;;;;;;5008860;28;20117;-33
2022/08/07 11:41:46;;;;;;;2.78;1.02;;;23.10;45.50;;;;;;5005643;28;20041;-35
2022/08/07 11:44:31;;;;;;;1.60;0.90;;;23.00;47.20;;;;;;5001275;28;20038;-36
2022/08/07 11:47:28;;;;;;;1.52;0.90;;;23.20;46.10;;;;;;4991153;28;22506;-33
2022/08/07 11:50:00;;;;;;;1.88;0.90;;;23.20;44.50;;;;;;5005958;28;20544;-33
2022/08/07 11:52:38;;;;;;;1.88;1.00;;;23.30;45.30;;;;;;5007847;28;20085;-33
2022/08/07 11:55:24;;;;;;;2.45;1.10;;;23.50;45.20;;;;;;4987146;28;20062;-33
2022/08/07 11:58:04;;;;;;;2.53;0.90;;;23.70;44.80;;;;;;5003876;28;20038;-33
2022/08/07 12:00:51;;;;;;;1.92;0.95;;;23.80;45.20;;;;;;5004025;28;20057;-41
2022/08/07 12:03:50;;;;;;;1.55;0.80;;;24.00;45.00;;;;;;5008259;28;20518;-37
2022/08/07 12:06:36;;;;;;;1.98;0.85;;;24.10;44.00;;;;;;4990026;28;20065;-40
2022/08/07 12:09:08;;;;;;;2.42;1.20;;;24.30;44.30;;;;;;5009807;28;20060;-41
2022/08/07 12:11:43;;;;;;;3.78;1.25;;;24.30;44.30;;;;;;5005257;28;20069;-35
2022/08/07 12:14:19;;;;;;;1.88;1.10;;;24.40;44.90;;;;;;4987717;28;20042;-34
2022/08/07 12:16:57;;;;;;;1.95;1.02;;;24.50;44.70;;;;;;5003960;28;20041;-34
2022/08/07 12:19:34;;;;;;;1.58;1.00;;;24.50;45.20;;;;;;5008016;28;20084;-39
2022/08/07 12:22:16;;;;;;;2.20;1.20;;;24.40;45.30;;;;;;5005888;28;20050;-36
2022/08/07 12:27:59;;;;;;;1.85;0.90;;;24.50;45.40;;;;;;5003020;28;20558;-38
2022/08/07 12:30:30;;;;;;;4.38;1.10;;;24.50;45.20;;;;;;5006318;28;20038;-37
2022/08/07 12:33:04;;;;;;;1.58;0.98;;;24.60;45.30;;;;;;5006708;28;20093;-42
2022/08/07 12:35:32;;;;;;;1.42;0.90;;;24.60;44.90;;;;;;5004063;28;20125;-42
2022/08/07 12:37:59;;;;;;;2.20;1.10;;;24.80;45.60;;;;;;5006631;28;20092;-40
2022/08/07 12:40:28;;;;;;;2.05;1.02;;;24.90;45.50;;;;;;5005685;28;20038;-43
2022/08/07 12:42:57;;;;;;;2.97;1.15;;;24.90;45.30;;;;;;5006124;28;20042;-43
2022/08/07 12:45:30;;;;;;;2.47;1.20;;;24.90;45.80;;;;;;5005197;28;20165;-43
2022/08/07 12:48:26;;;;;;;2.78;1.42;;;25.00;45.70;;;;;;5006694;28;20041;-42
2022/08/07 12:50:59;;;;;;;1.95;1.25;;;25.10;45.80;;;;;;4985634;28;20567;-40
2022/08/07 12:53:36;;;;;;;2.63;1.10;;;25.20;46.00;;;;;;4999871;28;20054;-40
2022/08/07 12:56:17;;;;;;;3.10;1.50;;;25.30;45.10;;;;;;4987126;28;20137;-40
2022/08/07 12:58:46;;;;;;;4.03;1.38;;;25.30;45.70;;;;;;5004938;28;20276;-42
2022/08/07 13:01:52;;;;;;;2.92;1.50;;;25.30;45.00;;;;;;5007524;28;20542;-43
2022/08/07 13:04:55;;;;;;;2.67;1.30;;;25.30;44.30;;;;;;4978515;28;20061;-42
2022/08/07 13:07:46;;;;;;;3.63;1.30;;;25.20;43.70;;;;;;5004176;28;20812;-38
2022/08/07 13:10:33;;;;;;;2.28;1.30;;;25.20;44.10;;;;;;5005812;28;20395;-40
2022/08/07 13:13:13;;;;;;;5.78;1.80;;;25.20;43.70;;;;;;5008434;28;20069;-43
2022/08/07 13:15:56;;;;;;;3.10;1.60;;;25.30;43.90;;;;;;4987517;28;20049;-42
2022/08/07 13:18:32;;;;;;;4.10;1.65;;;25.30;42.70;;;;;;5006680;28;20038;-43
2022/08/07 13:21:18;;;;;;;2.60;1.52;;;25.20;43.50;;;;;;5007582;28;20475;-42
2022/08/07 13:23:49;;;;;;;2.08;1.25;;;25.30;43.60;;;;;;4994299;28;20072;-43
2022/08/07 13:26:18;;;;;;;3.28;1.02;;;25.50;42.60;;;;;;5001862;28;20046;-43